SOUTH HURON 43NM East of Oscoda, MI (45008)

Conditions for Wednesday

Daily
Weekly
Monthly
Marine Data Graph

Current Weather/Wave Observations

Air Temperature: 71° F
Humidity: 91
Wind direction (W Dir): SSE (145 - 154 Degrees)
Wind Speed (W Spd): 1.9 kts (2.2 mph)
Wind Gust (W Spd): 3.9 kts (4.5 mph)
Atmospheric Pressure (AP): 29.86 in

Updated: 4:00 PM EDT on August 21, 2019

Marine & Boating Location Search

Enter a coastal zip code for marine weather.

Current Wave Detail Observations

Water Depth: 177 ft
Wave Height: 0.52 ft
Spectral Peak Period:
Average Wave Period: 2.4 sec
Sampling Interval: 0.6 sec
Wave Record: 2400 sec

Updated: 3:00 PM EDT on August 21, 2019

General Information

Location: 44.283 North -82.416 West
Buoy Type: 3-meter foam buoy
Buoy Hull: 3DV13
Payload: AMPS payload
Owned by: NDBC
Windspeed: Measured by obtained from anemometer
Sea Surface: Measured by Intake

Weather and Wave Data

Time Temp Humidity Wind Dominant Wave Wind Wave Pressure
  Air
(°F)
Water
(°F)
  Dir Speed
(kts)
Speed
(mph)
Period
(sec)
Height
(ft)
Range
(ft)
Period
(sec)
Height
(ft)
Range
(ft)
Atmo.
(in)
Tend.
(in)
20:10 73
-
89 South 1.9 2.2 - - - 29.90 -
20:20 73 71 89 South 1.9 2.2 - - - 29.91 -
20:30 72 71 94 SSW 1.9 2.2 - - - 29.91 -
20:40 72 71 94 South 3.9 4.5 - - - 29.90 -
21:20 73 71 91 SW 3.9 4.5 - - - 29.90 -
21:30 73 71 91 SW 3.9 4.5 - - - 29.90 -
21:40 73 71 90 SW 3.9 4.5 - - - 29.90 -
21:50 72 71 94 SW 3.9 4.5 0.66 exactly 0.7 - - - 29.90 -
22:00 72 70 94 SSW 3.9 4.5 - - - 29.90 -
22:30 72 70 96 SSW 3.9 4.5 - - - 29.90 -
22:50 72 70 97 SSW 3.9 4.5 0.66 exactly 0.7 - - - 29.89 -
23:00 73 70 92 SW 3.9 4.5 - - - 29.90 -
23:10 73 70 92 SW 3.9 4.5 - - - 29.89 -
23:20 73 70 91 SW 3.9 4.5 - - - 29.90 -
23:30 72 70 95 SW 3.9 4.5 - - - 29.90 -
23:50 72 71 96 SSW 5.8 6.7 0.66 exactly 0.7 - - - 29.90 -
00:10 73 71 91 WSW 5.8 6.7 - - - 29.90 -
00:40 72 71 96 SW 5.8 6.7 - - - 29.90 -
00:50 72
-
96 West 5.8 6.7 0.66 exactly 0.7 - - - 29.90 -
01:00 72 71 97 West 5.8 6.7 - - - 29.90 -
01:20 72 71 97 SW 5.8 6.7 - - - 29.89 -
01:30 72 71 97 SW 5.8 6.7 - - - 29.89 -
01:40 72 71 97 WSW 5.8 6.7 - - - 29.89 -
01:50 72 71 97 West 5.8 6.7 0.66 exactly 0.7 - - - 29.88 -
02:00 72 71 94 WSW 5.8 6.7 - - - 29.89 -
02:10 72 71 93 WSW 5.8 6.7 - - - 29.88 -
02:20 72 71 93 SW 5.8 6.7 - - - 29.89 -
02:30 72 70 93 SW 5.8 6.7 - - - 29.89 -
03:10 71 71 98 WSW 5.8 6.7 - - - 29.90 -
03:40 71 70 97 WSW 7.8 8.9 - - - 29.89 -
03:50 71 70 97 WSW 7.8 8.9 0.66 exactly 0.7 - - - 29.89 -
04:00 71 70 97 WSW 7.8 8.9 - - - 29.89 -
04:30 71 70 95 West 7.8 8.9 - - - 29.88 -
04:40 71 70 95 West 7.8 8.9 - - - 29.88 -
04:50 70 70 96 WNW 9.7 11.2 0.66 exactly 0.7 - - - 29.88 -
05:10 70 70 90 WNW 9.7 11.2 - - - 29.88 -
05:20 70 70 90 WNW 9.7 11.2 - - - 29.88 -
05:40 70 70 90 NW 7.8 8.9 - - - 29.88 -
06:10 70 70 89 NW 7.8 8.9 - - - 29.87 -
06:20 70 70 90 NW 9.7 11.2 - - - 29.87 -
06:30 70 69 90 NW 7.8 8.9 - - - 29.87 -
06:40 70 69 90 NW 7.8 8.9 - - - 29.88 -
06:50 70 69 90 NW 7.8 8.9 3 0.98 exactly 1.0 3 1.64 0.82 - 2.46 29.87 -
07:20 70 69 88 NW 7.8 8.9 - - - 29.88 -
07:30 70 69 88 NW 7.8 8.9 - - - 29.88 -
07:40 70 69 87 NW 7.8 8.9 - - - 29.88 -
07:50 70 69 87 NW 5.8 6.7 3 0.98 exactly 1.0 3 1.64 0.82 - 2.46 29.88 -
09:00 70 69 85 WNW 5.8 6.7 - - - 29.87 -
09:40 70 69 85 West 3.9 4.5 - - - 29.86 -
10:20 70 69 87 SW 3.9 4.5 - - - 29.86 -
10:30 70 69 88 SSW 3.9 4.5 - - - 29.86 -
10:40 70 69 88 SW 5.8 6.7 - - - 29.87 -
11:00 70
-
89 WSW 7.8 8.9 - - - 29.89 -
11:10 70 70 89 WSW 7.8 8.9 - - - 29.89 -
11:20 70 70 88 WSW 7.8 8.9 - - - 29.89 -
11:40 71 70 82 WSW 7.8 8.9 - - - 29.89 -
11:50 71 70 81 WSW 7.8 8.9 0.66 exactly 0.7 - - - 29.89 -
12:20 71
-
87 WSW 5.8 6.7 - - - 29.89 -
12:40 71 70 86 WSW 3.9 4.5 - - - 29.88 -
13:20 71 70 90 West 3.9 4.5 - - - 29.88 -
13:30 71 70 91 West 3.9 4.5 - - - 29.87 -
13:40 72 70 88 WSW 3.9 4.5 - - - 29.87 -
13:50 72 70 89 WSW 3.9 4.5 0.33 exactly 0.3 - - - 29.88 -
14:00 72 70 89 West 7.8 8.9 - - - 29.88 -
14:10 71 71 90 West 7.8 8.9 - - - 29.87 -
14:20 71 71 91 West 5.8 6.7 - - - 29.87 -
14:30 72 71 90 WNW 5.8 6.7 - - - 29.87 -
14:40 72 71 91 West 7.8 8.9 - - - 29.86 -
15:10 72 71 91 West 5.8 6.7 - - - 29.86 -
15:20 72 71 92 NW 5.8 6.7 - - - 29.86 -
15:30 71 71 96 NNW 3.9 4.5 - - - 29.86 -
15:50 71 71 90 ENE 3.9 4.5 3 1.31 exactly 1.3 3 1.64 0.82 - 2.46 29.86 -

Detailed Wave Spectra

Time Water Depth Wave Height Spectral Peak Period Average Wave Period Sampling Interval Wave Record
21:00 177 ft 0.72 ft 2.6 sec 0.6 sec 2400 sec
00:00 177 ft 0.62 ft 2.9 sec 0.6 sec 2400 sec
03:00 177 ft 0.59 ft 3.2 sec 0.6 sec 2400 sec
05:00 177 ft 0.66 ft 3.0 sec 0.6 sec 2400 sec
06:00 177 ft 0.69 ft 2.5 sec 0.6 sec 2400 sec
07:00 177 ft 1.05 ft 2.6 sec 2.6 sec 0.6 sec 2400 sec
08:00 177 ft 0.98 ft 2.6 sec 2.6 sec 0.6 sec 2400 sec
12:00 177 ft 0.59 ft 2.7 sec 0.6 sec 2400 sec
13:00 177 ft 0.56 ft 2.5 sec 0.6 sec 2400 sec
15:00 177 ft 0.52 ft 2.4 sec 0.6 sec 2400 sec
16:00 177 ft 1.44 ft 3.0 sec 2.9 sec 0.6 sec 2400 sec